createdAt,value
2022-09-06T00:00:16.995Z,13.70
2022-09-06T00:02:44.287Z,13.60
2022-09-06T00:05:12.790Z,13.60
2022-09-06T00:07:40.136Z,13.50
2022-09-06T00:10:07.391Z,13.60
2022-09-06T00:12:34.436Z,13.50
2022-09-06T00:15:01.196Z,13.50
2022-09-06T00:17:28.068Z,13.50
2022-09-06T00:19:55.122Z,13.40
2022-09-06T00:22:21.908Z,13.40
2022-09-06T00:24:48.741Z,13.40
2022-09-06T00:27:15.517Z,13.30
2022-09-06T00:29:42.251Z,13.30
2022-09-06T00:32:10.209Z,13.30
2022-09-06T00:34:37.060Z,13.30
2022-09-06T00:37:03.830Z,13.20
2022-09-06T00:39:30.678Z,13.30
2022-09-06T00:41:57.534Z,13.30
2022-09-06T00:44:24.404Z,13.20
2022-09-06T00:46:53.677Z,13.20
2022-09-06T00:49:29.817Z,13.10
2022-09-06T00:52:02.175Z,13.10
2022-09-06T00:54:29.451Z,13.00
2022-09-06T00:56:57.319Z,13.00
2022-09-06T00:59:27.085Z,12.90
2022-09-06T01:01:53.940Z,12.90
2022-09-06T01:04:21.022Z,12.90
2022-09-06T01:06:47.774Z,12.80
2022-09-06T01:09:39.335Z,12.80
2022-09-06T01:12:21.084Z,12.70
2022-09-06T01:14:47.804Z,12.70
2022-09-06T01:17:26.725Z,12.80
2022-09-06T01:20:18.116Z,12.80
2022-09-06T01:23:04.758Z,12.70
2022-09-06T01:26:13.175Z,12.70
2022-09-06T01:28:43.779Z,12.60
2022-09-06T01:31:25.557Z,12.60
2022-09-06T01:33:58.455Z,12.60
2022-09-06T01:36:32.779Z,12.60
2022-09-06T01:38:59.641Z,12.60
2022-09-06T01:41:26.802Z,12.60
2022-09-06T01:43:55.249Z,12.60
2022-09-06T01:46:32.935Z,12.60
2022-09-06T01:49:42.924Z,12.50
2022-09-06T01:52:17.999Z,12.50
2022-09-06T01:55:09.484Z,12.50
2022-09-06T01:58:06.630Z,12.50
2022-09-06T02:00:41.625Z,12.40
2022-09-06T02:03:36.802Z,12.40
2022-09-06T02:06:14.669Z,12.40
2022-09-06T02:08:53.281Z,12.40
2022-09-06T02:11:21.185Z,12.30
2022-09-06T02:13:54.247Z,12.40
2022-09-06T02:16:24.490Z,12.30
2022-09-06T02:19:12.244Z,12.30
2022-09-06T02:21:43.376Z,12.20
2022-09-06T02:24:15.543Z,12.20
2022-09-06T02:26:45.124Z,12.20
2022-09-06T02:29:12.398Z,12.10
2022-09-06T02:31:44.533Z,12.10
2022-09-06T02:34:15.628Z,12.10
2022-09-06T02:36:42.744Z,12.10
2022-09-06T02:39:10.067Z,12.10
2022-09-06T02:41:37.876Z,12.10
2022-09-06T02:44:04.619Z,12.00
2022-09-06T02:46:31.441Z,12.00
2022-09-06T02:48:58.247Z,12.00
2022-09-06T02:51:25.011Z,12.00
2022-09-06T02:53:52.052Z,11.90
2022-09-06T02:56:18.835Z,11.90
2022-09-06T02:58:45.721Z,11.90
2022-09-06T03:01:12.619Z,11.80
2022-09-06T03:03:39.464Z,11.80
2022-09-06T03:06:06.515Z,11.80
2022-09-06T03:08:34.216Z,11.80
2022-09-06T03:11:01.144Z,11.70
2022-09-06T03:13:28.247Z,11.70
2022-09-06T03:15:57.575Z,11.70
2022-09-06T03:18:25.847Z,11.70
2022-09-06T03:20:54.228Z,11.70
2022-09-06T03:23:24.754Z,11.70
2022-09-06T03:25:52.004Z,11.70
2022-09-06T03:28:20.052Z,11.70
2022-09-06T03:30:48.604Z,11.70
2022-09-06T03:33:16.007Z,11.60
2022-09-06T03:35:54.596Z,11.70
2022-09-06T03:38:21.748Z,11.60
2022-09-06T03:40:49.425Z,11.70
2022-09-06T03:43:17.754Z,11.70
2022-09-06T03:45:53.091Z,11.60
2022-09-06T03:48:22.421Z,11.60
2022-09-06T03:50:51.792Z,11.80
2022-09-06T03:53:18.960Z,12.10
2022-09-06T03:55:50.818Z,12.50
2022-09-06T03:58:19.622Z,12.80
2022-09-06T04:00:46.456Z,13.10
2022-09-06T04:03:13.686Z,13.10
2022-09-06T04:05:40.805Z,13.10
2022-09-06T04:08:07.596Z,13.20
2022-09-06T04:10:34.335Z,13.10
2022-09-06T04:13:01.119Z,13.10
2022-09-06T04:15:28.048Z,13.10
2022-09-06T04:17:54.804Z,13.10
2022-09-06T04:20:21.646Z,13.00
2022-09-06T04:22:48.527Z,12.90
2022-09-06T04:25:15.369Z,13.00
2022-09-06T04:27:42.227Z,13.00
2022-09-06T04:30:09.425Z,13.00
2022-09-06T04:32:36.335Z,13.00
2022-09-06T04:35:03.317Z,13.00
2022-09-06T04:37:30.038Z,13.00
2022-09-06T04:39:56.880Z,13.00
2022-09-06T04:42:23.649Z,13.10
2022-09-06T04:44:50.592Z,13.10
2022-09-06T04:47:19.198Z,13.10
2022-09-06T04:49:48.197Z,13.10
2022-09-06T04:52:15.619Z,13.20
2022-09-06T04:54:42.652Z,13.20
2022-09-06T04:57:09.823Z,13.40
2022-09-06T04:59:36.648Z,13.60
2022-09-06T05:02:04.127Z,13.60
2022-09-06T05:04:31.075Z,13.80
2022-09-06T05:07:05.806Z,13.90
2022-09-06T05:09:33.508Z,14.10
2022-09-06T05:12:00.891Z,14.10
2022-09-06T05:14:28.656Z,14.10
2022-09-06T05:16:55.747Z,14.20
2022-09-06T05:19:23.020Z,14.30
2022-09-06T05:21:51.405Z,14.30
2022-09-06T05:24:18.395Z,14.30
2022-09-06T05:26:45.221Z,14.30
2022-09-06T05:29:12.048Z,14.30
2022-09-06T05:31:38.909Z,14.30
2022-09-06T05:34:05.973Z,14.30
2022-09-06T05:36:33.235Z,14.40
2022-09-06T05:39:00.360Z,14.40
2022-09-06T05:41:27.556Z,14.40
2022-09-06T05:43:54.412Z,14.50
2022-09-06T05:46:21.540Z,14.60
2022-09-06T05:49:01.170Z,14.70
2022-09-06T05:51:28.051Z,14.80
2022-09-06T05:53:54.907Z,14.70
2022-09-06T05:56:22.525Z,14.80
2022-09-06T05:58:49.382Z,14.80
2022-09-06T06:01:22.037Z,15.00
2022-09-06T06:03:54.679Z,15.00
2022-09-06T06:06:23.828Z,15.00
2022-09-06T06:08:50.739Z,15.10
2022-09-06T06:11:18.117Z,15.20
2022-09-06T06:13:45.145Z,15.30
2022-09-06T06:16:15.225Z,15.40
2022-09-06T06:18:42.604Z,15.50
2022-09-06T06:21:21.675Z,15.60
2022-09-06T06:23:52.632Z,15.60
2022-09-06T06:26:20.027Z,15.70
2022-09-06T06:28:46.940Z,15.80
2022-09-06T06:31:14.251Z,15.80
2022-09-06T06:33:41.863Z,15.90
2022-09-06T06:36:24.413Z,15.80
2022-09-06T06:38:54.313Z,15.80
2022-09-06T06:41:24.090Z,15.80
2022-09-06T06:43:55.216Z,15.80
2022-09-06T06:46:24.639Z,15.80
2022-09-06T06:48:54.836Z,15.80
2022-09-06T06:51:28.285Z,15.80
2022-09-06T06:53:56.913Z,15.80
2022-09-06T06:56:31.139Z,15.80
2022-09-06T06:59:00.171Z,15.90
2022-09-06T07:01:29.155Z,16.00
2022-09-06T07:03:56.256Z,16.00
2022-09-06T07:09:10.377Z,16.20
2022-09-06T07:11:37.256Z,16.30
2022-09-06T07:14:04.174Z,16.40
2022-09-06T07:16:31.471Z,16.60
2022-09-06T07:18:58.497Z,16.70
2022-09-06T07:26:38.784Z,17.10
2022-09-06T07:29:07.454Z,17.10
2022-09-06T07:34:22.537Z,17.30
2022-09-06T07:36:55.222Z,17.40
2022-09-06T07:39:22.782Z,17.40
2022-09-06T07:41:49.635Z,17.50
2022-09-06T07:44:16.443Z,17.50
2022-09-06T07:46:43.283Z,17.60
2022-09-06T07:49:10.085Z,17.70
2022-09-06T07:51:37.116Z,17.80
2022-09-06T07:54:29.281Z,17.80
2022-09-06T07:56:51.750Z,17.90
2022-09-06T07:59:18.507Z,17.90
2022-09-06T08:01:45.442Z,18.10
2022-09-06T08:04:14.117Z,18.10
2022-09-06T08:09:37.078Z,18.20
2022-09-06T08:12:07.407Z,18.30
2022-09-06T08:14:35.216Z,18.40
2022-09-06T08:17:02.782Z,18.50
2022-09-06T08:19:29.609Z,18.50
2022-09-06T08:21:56.488Z,18.70
2022-09-06T08:24:23.388Z,18.70
2022-09-06T08:26:50.267Z,18.80
2022-09-06T08:29:17.242Z,19.00
2022-09-06T08:31:45.123Z,19.00
2022-09-06T08:34:12.729Z,19.10
2022-09-06T08:36:39.989Z,19.40
2022-09-06T08:39:10.032Z,19.60
2022-09-06T08:41:58.528Z,20.20
2022-09-06T08:44:58.449Z,20.40
2022-09-06T08:47:25.777Z,20.30
2022-09-06T08:50:06.410Z,20.60
2022-09-06T08:53:16.330Z,20.90
2022-09-06T08:55:46.575Z,21.00
2022-09-06T08:58:45.822Z,21.00
2022-09-06T09:01:25.222Z,21.00
2022-09-06T09:03:54.380Z,21.40
2022-09-06T09:06:22.944Z,21.20
2022-09-06T09:09:12.983Z,21.40
2022-09-06T09:11:45.661Z,21.80
2022-09-06T09:14:16.872Z,22.20
2022-09-06T09:16:44.085Z,22.40
2022-09-06T09:19:11.132Z,22.60
2022-09-06T09:21:40.183Z,22.70
2022-09-06T09:24:12.818Z,23.10
2022-09-06T09:26:48.183Z,23.30
2022-09-06T09:29:15.976Z,23.30
2022-09-06T09:31:53.877Z,23.30
2022-09-06T09:34:39.659Z,23.10
2022-09-06T09:40:15.864Z,23.70
2022-09-06T09:42:42.627Z,24.20
2022-09-06T09:45:28.977Z,24.20
2022-09-06T09:47:56.116Z,24.40
2022-09-06T09:50:31.030Z,24.30
2022-09-06T09:53:09.130Z,24.30
2022-09-06T09:55:36.496Z,24.60
2022-09-06T09:58:04.097Z,25.30
2022-09-06T10:00:40.060Z,25.10
2022-09-06T10:03:20.130Z,25.90
2022-09-06T10:06:02.526Z,25.70
2022-09-06T10:08:32.814Z,25.80
2022-09-06T10:11:00.941Z,26.00
2022-09-06T10:13:29.723Z,25.60
2022-09-06T10:16:03.365Z,25.80
2022-09-06T10:18:41.979Z,25.70
2022-09-06T10:21:16.088Z,25.80
2022-09-06T10:26:53.718Z,25.90
2022-09-06T10:29:37.224Z,26.10
2022-09-06T10:32:31.830Z,26.60
2022-09-06T10:35:16.573Z,26.70
2022-09-06T10:37:58.432Z,26.90
2022-09-06T10:40:29.853Z,27.10
2022-09-06T10:42:59.545Z,26.50
2022-09-06T10:45:43.237Z,26.60
2022-09-06T10:48:14.965Z,26.80
2022-09-06T10:51:11.329Z,27.20
2022-09-06T10:53:55.368Z,27.40
2022-09-06T10:56:38.760Z,28.00
2022-09-06T10:59:38.441Z,27.50
2022-09-06T11:02:36.826Z,27.20
2022-09-06T11:10:55.472Z,27.30
2022-09-06T11:13:28.322Z,27.10
2022-09-06T11:16:16.524Z,27.00
2022-09-06T11:18:56.152Z,26.80
2022-09-06T11:21:29.077Z,26.40
2022-09-06T11:24:15.903Z,26.40
2022-09-06T11:26:51.309Z,26.10
2022-09-06T11:29:22.291Z,26.20
2022-09-06T11:34:53.995Z,27.50
2022-09-06T11:37:31.164Z,27.80
2022-09-06T11:42:52.118Z,28.40
2022-09-06T11:45:38.344Z,27.70
2022-09-06T11:48:23.665Z,28.40
2022-09-06T11:50:59.749Z,28.20
2022-09-06T11:53:33.964Z,28.10
2022-09-06T11:56:00.651Z,28.00
2022-09-06T11:58:43.140Z,27.70
2022-09-06T12:01:30.106Z,28.00
2022-09-06T12:04:08.765Z,28.10
2022-09-06T12:07:02.518Z,28.00
2022-09-06T12:09:34.986Z,28.10
2022-09-06T12:12:02.715Z,28.60
2022-09-06T12:14:46.086Z,28.60
2022-09-06T12:17:12.831Z,28.20
2022-09-06T12:20:06.914Z,28.20
2022-09-06T12:22:33.879Z,28.10
2022-09-06T12:25:05.835Z,27.80
2022-09-06T12:27:35.008Z,28.10
2022-09-06T12:30:13.170Z,27.80
2022-09-06T12:32:46.877Z,28.00
2022-09-06T12:38:06.893Z,29.40
2022-09-06T12:40:45.564Z,28.70
2022-09-06T12:43:15.149Z,28.50
2022-09-06T12:45:47.358Z,28.10
2022-09-06T12:48:35.289Z,27.60
2022-09-06T12:51:20.070Z,27.80
2022-09-06T12:53:59.503Z,27.50
2022-09-06T12:56:28.570Z,27.30
2022-09-06T12:59:25.052Z,27.30
2022-09-06T13:02:16.769Z,27.40
2022-09-06T13:04:54.408Z,27.70
2022-09-06T13:07:24.115Z,28.10
2022-09-06T13:09:55.568Z,27.80
2022-09-06T13:12:37.021Z,27.70
2022-09-06T13:15:25.211Z,27.40
2022-09-06T13:17:53.516Z,27.70
2022-09-06T13:20:30.481Z,27.80
2022-09-06T13:23:13.047Z,27.80
2022-09-06T13:25:51.632Z,27.80
2022-09-06T13:28:32.895Z,28.00
2022-09-06T13:31:20.923Z,28.20
2022-09-06T13:33:58.139Z,28.00
2022-09-06T13:36:28.131Z,27.50
2022-09-06T13:38:55.622Z,27.60
2022-09-06T13:41:25.176Z,27.30
2022-09-06T13:44:01.200Z,27.50
2022-09-06T13:46:28.050Z,27.70
2022-09-06T13:48:55.474Z,27.60
2022-09-06T13:51:23.219Z,27.80
2022-09-06T13:53:50.770Z,27.90
2022-09-06T13:56:17.753Z,27.40
2022-09-06T13:58:45.207Z,27.60
2022-09-06T14:01:14.173Z,27.60
2022-09-06T14:03:41.894Z,27.40
2022-09-06T14:06:10.255Z,27.30
2022-09-06T14:09:03.370Z,27.50
2022-09-06T14:11:26.121Z,27.60
2022-09-06T14:13:52.998Z,27.70
2022-09-06T14:16:19.864Z,27.40
2022-09-06T14:18:46.782Z,27.50
2022-09-06T14:21:13.636Z,27.30
2022-09-06T14:23:40.465Z,26.90
2022-09-06T14:26:07.281Z,27.10
2022-09-06T14:28:37.186Z,27.40
2022-09-06T14:31:18.343Z,27.60
2022-09-06T14:33:45.133Z,27.60
2022-09-06T14:36:18.001Z,27.30
2022-09-06T14:38:46.016Z,27.40
2022-09-06T14:41:14.537Z,27.30
2022-09-06T14:43:49.912Z,27.30
2022-09-06T14:46:18.677Z,27.40
2022-09-06T14:48:46.101Z,27.60
2022-09-06T14:51:24.859Z,27.50
2022-09-06T14:53:54.623Z,27.50
2022-09-06T14:56:22.991Z,27.20
2022-09-06T14:58:49.890Z,27.40
2022-09-06T15:01:20.438Z,27.40
2022-09-06T15:03:57.102Z,27.40
2022-09-06T15:06:25.743Z,27.20
2022-09-06T15:08:58.380Z,26.60
2022-09-06T15:11:37.160Z,26.40
2022-09-06T15:14:28.364Z,26.50
2022-09-06T15:16:58.065Z,26.50
2022-09-06T15:19:26.891Z,26.60
2022-09-06T15:21:55.224Z,26.50
2022-09-06T15:24:22.121Z,26.50
2022-09-06T15:26:49.237Z,26.30
2022-09-06T15:29:16.779Z,26.50
2022-09-06T15:31:44.856Z,26.60
2022-09-06T15:34:12.141Z,26.30
2022-09-06T15:36:38.916Z,26.30
2022-09-06T15:39:06.405Z,26.10
2022-09-06T15:41:36.144Z,26.20
2022-09-06T15:44:09.536Z,26.10
2022-09-06T15:46:39.932Z,26.00
2022-09-06T15:49:08.150Z,25.80
2022-09-06T15:51:37.542Z,25.80
2022-09-06T15:54:05.348Z,25.70
2022-09-06T15:56:32.171Z,25.60
2022-09-06T15:58:59.087Z,25.60
2022-09-06T16:01:26.969Z,25.50
2022-09-06T16:04:03.407Z,25.40
2022-09-06T16:06:32.811Z,25.30
2022-09-06T16:09:06.909Z,25.20
2022-09-06T16:11:36.565Z,25.10
2022-09-06T16:14:09.405Z,25.10
2022-09-06T16:16:36.710Z,25.10
2022-09-06T16:19:04.060Z,25.20
2022-09-06T16:21:33.367Z,25.30
2022-09-06T16:24:03.242Z,25.40
2022-09-06T16:26:38.707Z,25.40
2022-09-06T16:29:07.030Z,25.40
2022-09-06T16:31:39.324Z,25.30
2022-09-06T16:34:08.355Z,25.20
2022-09-06T16:36:35.163Z,25.10
2022-09-06T16:39:02.104Z,25.00
2022-09-06T16:41:36.293Z,25.00
2022-09-06T16:44:03.474Z,24.90
2022-09-06T16:46:31.184Z,24.90
2022-09-06T16:49:01.451Z,24.70
2022-09-06T16:51:29.374Z,24.60
2022-09-06T16:53:56.927Z,24.50
2022-09-06T16:56:26.311Z,24.40
2022-09-06T16:58:58.596Z,24.30
2022-09-06T17:01:26.803Z,24.20
2022-09-06T17:03:54.041Z,24.00
2022-09-06T17:06:21.624Z,23.90
2022-09-06T17:08:48.710Z,23.80
2022-09-06T17:11:22.324Z,23.70
2022-09-06T17:13:51.288Z,23.40
2022-09-06T17:16:40.355Z,23.50
2022-09-06T17:19:09.079Z,23.40
2022-09-06T17:21:37.439Z,23.30
2022-09-06T17:24:05.398Z,23.30
2022-09-06T17:26:34.618Z,23.20
2022-09-06T17:29:01.925Z,23.10
2022-09-06T17:31:29.754Z,22.90
2022-09-06T17:33:56.687Z,22.80
2022-09-06T17:36:26.593Z,22.70
2022-09-06T17:38:59.057Z,22.60
2022-09-06T17:41:30.325Z,22.50
2022-09-06T17:43:58.694Z,22.30
2022-09-06T17:46:28.897Z,22.10
2022-09-06T17:48:56.610Z,22.00
2022-09-06T17:51:24.484Z,22.00
2022-09-06T17:53:52.264Z,21.90
2022-09-06T17:56:20.366Z,21.70
2022-09-06T17:58:58.670Z,21.40
2022-09-06T18:01:29.361Z,21.20
2022-09-06T18:03:57.091Z,21.10
2022-09-06T18:06:25.658Z,21.10
2022-09-06T18:08:54.608Z,21.00
2022-09-06T18:11:27.273Z,21.00
2022-09-06T18:14:01.430Z,20.90
2022-09-06T18:16:30.396Z,20.90
2022-09-06T18:19:00.579Z,20.80
2022-09-06T18:21:30.972Z,20.60
2022-09-06T18:23:58.235Z,20.60
2022-09-06T18:26:25.391Z,20.50
2022-09-06T18:28:55.130Z,20.50
2022-09-06T18:31:25.479Z,20.50
2022-09-06T18:33:52.985Z,20.40
2022-09-06T18:36:20.306Z,20.30
2022-09-06T18:38:47.391Z,20.30
2022-09-06T18:41:34.952Z,20.10
2022-09-06T18:44:05.660Z,20.00
2022-09-06T18:46:34.641Z,19.90
2022-09-06T18:49:01.646Z,19.90
2022-09-06T18:51:28.863Z,19.90
2022-09-06T18:53:57.449Z,19.90
2022-09-06T18:56:25.197Z,19.80
2022-09-06T18:58:55.472Z,19.70
2022-09-06T19:01:22.645Z,19.70
2022-09-06T19:03:49.700Z,19.60
2022-09-06T19:06:18.990Z,19.40
2022-09-06T19:08:46.946Z,19.30
2022-09-06T19:11:19.490Z,19.30
2022-09-06T19:13:50.588Z,19.20
2022-09-06T19:16:18.199Z,19.20
2022-09-06T19:18:45.091Z,19.20
2022-09-06T19:21:17.488Z,19.10
2022-09-06T19:23:46.447Z,19.00
2022-09-06T19:26:19.363Z,19.00
2022-09-06T19:28:51.503Z,19.00
2022-09-06T19:31:18.945Z,18.90
2022-09-06T19:33:48.071Z,18.90
2022-09-06T19:36:16.580Z,18.80
2022-09-06T19:41:31.700Z,18.70
2022-09-06T19:44:00.126Z,18.60
2022-09-06T19:46:27.572Z,18.60
2022-09-06T19:48:56.167Z,18.50
2022-09-06T19:51:24.148Z,18.50
2022-09-06T19:53:53.415Z,18.40
2022-09-06T19:56:33.311Z,18.30
2022-09-06T19:59:05.811Z,18.30
2022-09-06T20:01:34.947Z,18.20
2022-09-06T20:04:03.620Z,18.20
2022-09-06T20:06:31.357Z,18.20
2022-09-06T20:08:59.975Z,18.20
2022-09-06T20:11:29.258Z,18.20
2022-09-06T20:13:56.170Z,18.10
2022-09-06T20:16:24.886Z,18.10
2022-09-06T20:18:53.850Z,17.90
2022-09-06T20:21:21.055Z,17.90
2022-09-06T20:23:52.253Z,17.90
2022-09-06T20:26:19.771Z,17.90
2022-09-06T20:28:47.498Z,17.70
2022-09-06T20:31:16.692Z,17.70
2022-09-06T20:33:48.728Z,17.60
2022-09-06T20:36:16.854Z,17.60
2022-09-06T20:38:45.283Z,17.60
2022-09-06T20:41:17.686Z,17.50
2022-09-06T20:43:45.489Z,17.50
2022-09-06T20:46:16.330Z,17.50
2022-09-06T20:48:45.380Z,17.40
2022-09-06T20:51:19.103Z,17.30
2022-09-06T20:53:57.756Z,17.30
2022-09-06T20:56:27.416Z,17.30
2022-09-06T20:58:57.323Z,17.10
2022-09-06T21:01:26.631Z,17.10
2022-09-06T21:03:56.164Z,17.10
2022-09-06T21:06:25.231Z,17.00
2022-09-06T21:08:52.445Z,17.00
2022-09-06T21:11:19.763Z,17.00
2022-09-06T21:13:53.498Z,16.90
2022-09-06T21:16:24.659Z,16.90
2022-09-06T21:18:57.105Z,16.90
2022-09-06T21:21:25.468Z,16.90
2022-09-06T21:23:52.909Z,16.90
2022-09-06T21:26:20.723Z,16.90
2022-09-06T21:28:48.267Z,16.90
2022-09-06T21:31:25.851Z,16.80
2022-09-06T21:33:55.137Z,16.80
2022-09-06T21:36:30.419Z,16.70
2022-09-06T21:38:59.965Z,16.70
2022-09-06T21:41:28.170Z,16.70
2022-09-06T21:43:59.893Z,16.60
2022-09-06T21:46:33.074Z,16.60
2022-09-06T21:49:04.212Z,16.60
2022-09-06T21:51:32.471Z,16.50
2022-09-06T21:54:03.376Z,16.50
2022-09-06T21:56:31.503Z,16.40
2022-09-06T21:58:58.974Z,16.40
2022-09-06T22:01:28.508Z,16.40
2022-09-06T22:03:55.704Z,16.40
2022-09-06T22:06:25.471Z,16.30
2022-09-06T22:08:53.957Z,16.40
2022-09-06T22:11:24.460Z,16.30
2022-09-06T22:13:51.786Z,16.40
2022-09-06T22:16:21.623Z,16.40
2022-09-06T22:18:49.255Z,16.40
2022-09-06T22:21:20.101Z,16.40
2022-09-06T22:24:11.194Z,16.40
2022-09-06T22:26:39.975Z,16.40
2022-09-06T22:29:09.016Z,16.40
2022-09-06T22:31:36.628Z,16.40
2022-09-06T22:34:04.194Z,16.40
2022-09-06T22:36:31.202Z,16.40
2022-09-06T22:38:58.958Z,16.40
2022-09-06T22:41:28.555Z,16.30
2022-09-06T22:43:55.580Z,16.30
2022-09-06T22:46:23.024Z,16.30
2022-09-06T22:48:50.378Z,16.30
2022-09-06T22:51:17.215Z,16.30
2022-09-06T22:53:44.036Z,16.30
2022-09-06T22:56:10.963Z,16.30
2022-09-06T22:58:37.789Z,16.30
2022-09-06T23:01:10.455Z,16.30
2022-09-06T23:03:37.808Z,16.20
2022-09-06T23:06:05.569Z,16.20
2022-09-06T23:08:33.757Z,16.10
2022-09-06T23:11:14.381Z,16.10
2022-09-06T23:13:44.879Z,16.10
2022-09-06T23:16:16.987Z,16.10
2022-09-06T23:18:44.714Z,16.00
2022-09-06T23:21:15.644Z,16.00
2022-09-06T23:23:43.248Z,16.00
2022-09-06T23:26:12.794Z,16.00
2022-09-06T23:28:39.769Z,16.00
2022-09-06T23:31:08.926Z,15.90
2022-09-06T23:33:37.249Z,15.90
2022-09-06T23:36:09.187Z,15.90
2022-09-06T23:38:37.723Z,15.90
2022-09-06T23:41:05.314Z,15.90
2022-09-06T23:43:32.650Z,15.90
2022-09-06T23:45:59.497Z,15.90
2022-09-06T23:48:26.595Z,15.90
2022-09-06T23:50:53.744Z,15.90
2022-09-06T23:53:20.584Z,15.90
2022-09-06T23:55:47.402Z,15.90
2022-09-06T23:58:14.570Z,15.90
